HETR

El Tor Airport

Egypt
TAF HETR 171700Z 1718/1824 33006G18KT CAVOK
Issued Valid From Valid To
Nov-17 @ 17:00 UTC
(5 hours ago)
Nov-17 @ 18:00 UTC
(4 hours ago)
Nov-19 @ 00:00 UTC
(-1 days ago)
Nov-17 @ 18:00 to Nov-19 @ 00:00
TAF HETR 171700Z 1718/1824 33006G18KT CAVOK
Wind Visibility Clouds Conditions
330° at 6 knots
 Gusting to 18 knots
10,000+ meters
  • No significant clouds
TAF HETR 171700Z 1718/1824 33006G18KT CAVOK
Issued Nov-17 @ 17:00 UTC
(5 hours ago)
Valid From Nov-17 @ 18:00 UTC
(4 hours ago)
Valid To Nov-19 @ 00:00 UTC
(-1 days ago)
Nov-17 @ 18:00 - Nov-19 @ 00:00
Wind Visibility
330° at 6 knots
 Gusting to 18 knots
10,000+ meters
Clouds
  • No significant clouds
Conditions